createdAt,value
2018-02-08T07:49:01.298Z,82.72
2018-02-08T07:51:27.667Z,82.72
2018-02-08T07:53:53.495Z,83.43
2018-02-08T07:56:19.508Z,85.36
2018-02-08T07:58:45.599Z,84.38
2018-02-08T08:01:11.407Z,84.50
2018-02-08T08:03:38.740Z,84.50
2018-02-08T08:06:05.595Z,84.84
2018-02-08T08:08:32.101Z,84.47
2018-02-08T08:10:57.906Z,84.23
2018-02-08T08:13:25.499Z,83.94
2018-02-08T08:15:52.813Z,84.26
2018-02-08T08:18:19.248Z,85.57
2018-02-08T08:20:45.632Z,85.52
2018-02-08T08:23:12.419Z,86.08
2018-02-08T08:25:38.262Z,86.49
2018-02-08T08:28:05.378Z,86.30
2018-02-08T08:30:32.330Z,85.95
2018-02-08T08:32:58.307Z,85.67
2018-02-08T08:35:24.992Z,85.27
2018-02-08T08:37:50.847Z,85.75
2018-02-08T08:40:17.445Z,85.34
2018-02-08T08:42:43.226Z,85.66
2018-02-08T08:45:10.926Z,85.41
2018-02-08T08:47:37.358Z,85.22
2018-02-08T08:50:03.338Z,84.62
2018-02-08T08:52:29.813Z,84.39
2018-02-08T08:54:55.905Z,83.34
2018-02-08T08:57:23.088Z,83.48
2018-02-08T08:59:49.094Z,83.64
2018-02-08T09:02:14.877Z,83.75
2018-02-08T09:04:40.662Z,83.31
2018-02-08T09:07:07.694Z,83.38
2018-02-08T09:09:33.511Z,83.42
2018-02-08T09:11:59.331Z,83.70
2018-02-08T09:14:25.163Z,83.33
2018-02-08T09:16:50.952Z,83.03
2018-02-08T09:19:16.988Z,82.81
2018-02-08T09:21:42.962Z,82.01
2018-02-08T09:24:08.741Z,82.02
2018-02-08T09:26:34.859Z,80.37
2018-02-08T09:29:00.682Z,83.37
2018-02-08T09:31:26.925Z,80.47
2018-02-08T09:33:52.744Z,83.02
2018-02-08T09:36:19.060Z,79.82
2018-02-08T09:38:45.688Z,75.71
2018-02-08T09:41:11.907Z,76.33
2018-02-08T09:43:37.710Z,75.96
2018-02-08T09:46:04.284Z,87.27
2018-02-08T09:48:30.150Z,67.42
2018-02-08T09:50:55.938Z,72.61
2018-02-08T09:53:28.629Z,74.25
2018-02-08T09:55:55.015Z,73.31
2018-02-08T09:58:22.110Z,72.40
2018-02-08T10:00:49.724Z,68.75
2018-02-08T10:03:17.498Z,68.49
2018-02-08T10:05:44.329Z,69.42
2018-02-08T10:08:12.575Z,70.22
2018-02-08T10:10:38.422Z,68.71
2018-02-08T10:13:04.204Z,69.15
2018-02-08T10:15:29.987Z,68.39
2018-02-08T10:17:55.847Z,71.06
2018-02-08T10:20:21.640Z,67.64
2018-02-08T10:22:47.439Z,61.57
2018-02-08T10:25:13.260Z,62.80
2018-02-08T10:27:39.072Z,66.22
2018-02-08T10:30:04.976Z,67.29
2018-02-08T10:32:30.796Z,65.79
2018-02-08T10:34:56.611Z,67.11
2018-02-08T10:37:22.390Z,67.36
2018-02-08T10:39:48.234Z,61.19
2018-02-08T10:42:14.036Z,64.90
2018-02-08T10:44:39.839Z,66.92
2018-02-08T10:47:06.218Z,67.64
2018-02-08T10:49:32.206Z,67.07
2018-02-08T10:51:58.011Z,62.61
2018-02-08T10:54:23.819Z,63.27
2018-02-08T10:56:49.711Z,64.04
2018-02-08T10:59:15.788Z,64.53
2018-02-08T11:01:41.605Z,63.84
2018-02-08T11:04:07.396Z,62.32
2018-02-08T11:06:33.180Z,55.80
2018-02-08T11:08:59.007Z,54.02
2018-02-08T11:11:24.814Z,55.55
2018-02-08T11:13:50.644Z,55.96
2018-02-08T11:16:16.462Z,59.93
2018-02-08T11:18:42.483Z,58.61
2018-02-08T11:21:08.569Z,58.86
2018-02-08T11:23:34.370Z,59.62
2018-02-08T11:26:00.155Z,62.74
2018-02-08T11:28:26.546Z,54.52
2018-02-08T11:30:52.437Z,53.00
2018-02-08T11:33:18.262Z,52.93
2018-02-08T11:35:44.071Z,49.42
2018-02-08T11:38:09.891Z,50.65
2018-02-08T11:40:35.714Z,55.76
2018-02-08T11:43:01.516Z,57.81
2018-02-08T11:45:27.687Z,58.21
2018-02-08T11:47:53.475Z,60.33
2018-02-08T11:50:19.278Z,59.47
2018-02-08T11:52:45.343Z,59.96
2018-02-08T11:55:11.180Z,59.02
2018-02-08T11:57:36.948Z,58.28
2018-02-08T12:00:02.777Z,54.64
2018-02-08T12:02:28.631Z,55.13
2018-02-08T12:04:54.423Z,59.63
2018-02-08T12:07:20.205Z,59.37
2018-02-08T12:09:46.177Z,58.20
2018-02-08T12:12:11.962Z,59.49
2018-02-08T12:14:37.742Z,59.64
2018-02-08T12:17:03.536Z,55.60
2018-02-08T12:19:29.321Z,57.33
2018-02-08T12:21:55.136Z,52.02
2018-02-08T12:24:20.950Z,51.76
2018-02-08T12:26:46.750Z,55.28
2018-02-08T12:29:12.570Z,56.49
2018-02-08T12:31:38.375Z,53.76
2018-02-08T12:34:04.180Z,57.90
2018-02-08T12:36:29.966Z,51.26
2018-02-08T12:38:55.771Z,51.37
2018-02-08T12:41:21.563Z,53.66
2018-02-08T12:43:47.351Z,51.33
2018-02-08T12:46:15.880Z,50.82
2018-02-08T12:48:41.659Z,51.68
2018-02-08T12:51:07.445Z,51.28
2018-02-08T12:53:33.275Z,53.51
2018-02-08T12:55:59.091Z,55.64
2018-02-08T12:58:24.883Z,54.04
2018-02-08T13:00:50.931Z,55.08
2018-02-08T13:03:16.710Z,56.56
2018-02-08T13:05:42.518Z,50.95
2018-02-08T13:08:08.684Z,49.99
2018-02-08T13:10:34.467Z,49.35
2018-02-08T13:13:07.359Z,52.05
2018-02-08T13:15:33.176Z,53.58
2018-02-08T13:17:58.962Z,54.01
2018-02-08T13:20:24.767Z,58.09
2018-02-08T13:22:50.648Z,61.84
2018-02-08T13:25:16.458Z,53.46
2018-02-08T13:27:42.351Z,55.20
2018-02-08T13:30:08.867Z,56.06
2018-02-08T13:32:35.012Z,56.74
2018-02-08T13:35:00.826Z,55.25
2018-02-08T13:37:26.927Z,55.66
2018-02-08T13:39:53.685Z,54.73
2018-02-08T13:42:19.505Z,55.65
2018-02-08T13:44:45.296Z,54.54
2018-02-08T13:47:17.182Z,54.12
2018-02-08T13:49:42.992Z,54.94
2018-02-08T13:52:16.737Z,54.02
2018-02-08T13:54:45.714Z,53.92
2018-02-08T13:57:17.509Z,52.18
2018-02-08T13:59:49.371Z,53.17
2018-02-08T14:02:15.174Z,54.87
2018-02-08T14:04:40.982Z,56.55
2018-02-08T14:07:06.876Z,54.41
2018-02-08T14:09:32.667Z,52.45
2018-02-08T14:11:58.472Z,53.09
2018-02-08T14:14:24.588Z,54.23
2018-02-08T14:16:50.399Z,55.81
2018-02-08T14:19:16.676Z,56.26
2018-02-08T14:21:42.527Z,56.83
2018-02-08T14:24:08.706Z,56.96
2018-02-08T14:26:34.510Z,57.74
2018-02-08T14:29:00.488Z,57.81
2018-02-08T14:31:26.684Z,58.70
2018-02-08T14:33:52.511Z,59.09
2018-02-08T14:36:18.681Z,59.17
2018-02-08T14:38:44.560Z,58.64
2018-02-08T14:41:11.022Z,59.88
2018-02-08T14:43:37.723Z,60.18
2018-02-08T14:46:04.691Z,59.65
2018-02-08T14:48:30.548Z,61.19
2018-02-08T14:50:58.490Z,61.57
2018-02-08T14:53:24.274Z,60.86
2018-02-08T14:55:50.188Z,61.13
2018-02-08T14:58:16.163Z,62.24
2018-02-08T15:00:41.961Z,62.66
2018-02-08T15:03:08.326Z,63.34
2018-02-08T15:05:34.113Z,63.27
2018-02-08T15:08:00.104Z,63.57
2018-02-08T15:10:26.362Z,64.66
2018-02-08T15:12:52.146Z,65.17
2018-02-08T15:15:17.936Z,65.24
2018-02-08T15:17:43.755Z,66.27
2018-02-08T15:20:09.547Z,65.95
2018-02-08T15:22:35.691Z,65.86
2018-02-08T15:25:01.476Z,65.62
2018-02-08T15:27:27.284Z,65.59
2018-02-08T15:29:53.164Z,66.09
2018-02-08T15:32:20.398Z,65.98
2018-02-08T15:34:46.189Z,66.24
2018-02-08T15:37:12.354Z,66.93
2018-02-08T15:39:39.478Z,67.52
2018-02-08T15:42:05.279Z,67.85
2018-02-08T15:44:31.332Z,68.23
2018-02-08T15:46:57.110Z,68.89
2018-02-08T15:49:22.904Z,69.18
2018-02-08T15:51:48.892Z,69.84
2018-02-08T15:54:14.674Z,69.57
2018-02-08T15:56:40.467Z,69.86
2018-02-08T15:59:06.386Z,70.20
2018-02-08T16:01:32.206Z,70.08
2018-02-08T16:03:58.243Z,70.77
2018-02-08T16:06:24.306Z,71.07
2018-02-08T16:08:50.427Z,71.31
2018-02-08T16:11:16.700Z,71.40
2018-02-08T16:13:42.483Z,71.60
2018-02-08T16:16:08.308Z,70.83
2018-02-08T16:18:34.106Z,70.90
2018-02-08T16:21:00.148Z,70.72
2018-02-08T16:23:25.923Z,71.44
2018-02-08T16:25:51.710Z,72.41
2018-02-08T16:28:17.546Z,72.83
2018-02-08T16:30:43.323Z,72.92
2018-02-08T16:33:09.100Z,72.58
2018-02-08T16:35:35.042Z,72.83
2018-02-08T16:38:00.843Z,72.47
2018-02-08T16:40:26.623Z,72.64
2018-02-08T16:42:52.541Z,73.13
2018-02-08T16:45:18.571Z,73.43
2018-02-08T16:47:44.383Z,73.86
2018-02-08T16:50:10.574Z,74.23
2018-02-08T16:52:36.942Z,74.51
2018-02-08T16:55:02.799Z,74.90
2018-02-08T16:57:28.662Z,74.78
2018-02-08T16:59:54.499Z,75.57
2018-02-08T17:02:20.286Z,75.89
2018-02-08T17:04:46.207Z,75.82
2018-02-08T17:07:12.007Z,76.08
2018-02-08T17:09:37.800Z,76.81
2018-02-08T17:12:03.964Z,76.77
2018-02-08T17:14:29.758Z,76.55
2018-02-08T17:16:55.535Z,76.36
2018-02-08T17:19:21.618Z,77.00
2018-02-08T17:21:47.422Z,76.93
2018-02-08T17:24:13.206Z,77.30
2018-02-08T17:26:39.028Z,76.94
2018-02-08T17:29:04.895Z,77.03
2018-02-08T17:31:30.662Z,76.66
2018-02-08T17:33:56.625Z,76.17
2018-02-08T17:36:22.410Z,76.02
2018-02-08T17:38:48.219Z,75.49
2018-02-08T17:41:14.139Z,76.49
2018-02-08T17:43:39.941Z,76.57
2018-02-08T17:46:05.724Z,76.78
2018-02-08T17:48:31.614Z,76.76
2018-02-08T17:50:57.510Z,76.90
2018-02-08T17:53:23.368Z,77.02
2018-02-08T17:55:49.482Z,77.37
2018-02-08T17:58:15.297Z,77.17
2018-02-08T18:00:41.111Z,76.40
2018-02-08T18:03:06.935Z,76.36
2018-02-08T18:05:32.735Z,76.28
2018-02-08T18:07:58.510Z,76.48
2018-02-08T18:10:24.524Z,76.04
2018-02-08T18:12:50.278Z,75.63
2018-02-08T18:15:16.105Z,75.49
2018-02-08T18:17:41.926Z,75.93
2018-02-08T18:20:07.720Z,75.65
2018-02-08T18:22:33.526Z,75.74
2018-02-08T18:24:59.535Z,76.32
2018-02-08T18:27:25.334Z,76.67
2018-02-08T18:29:51.131Z,76.86
2018-02-08T18:32:16.953Z,76.82
2018-02-08T18:34:42.762Z,76.96
2018-02-08T18:37:08.566Z,77.41
2018-02-08T18:39:34.547Z,77.30
2018-02-08T18:42:00.326Z,77.76
2018-02-08T18:44:26.121Z,77.33
2018-02-08T18:46:51.936Z,77.47
2018-02-08T18:49:17.743Z,77.64
2018-02-08T18:51:43.556Z,77.59
2018-02-08T18:54:09.769Z,77.78
2018-02-08T18:56:35.892Z,77.60
2018-02-08T18:59:01.715Z,77.38
2018-02-08T19:01:27.510Z,80.84
2018-02-08T19:03:53.295Z,77.58
2018-02-08T19:06:19.087Z,79.27
2018-02-08T19:08:44.894Z,77.85
2018-02-08T19:11:10.683Z,70.67
2018-02-08T19:13:36.479Z,71.07
2018-02-08T19:16:02.292Z,69.08
2018-02-08T19:18:28.087Z,69.62
2018-02-08T19:20:53.878Z,72.72
2018-02-08T19:23:19.694Z,65.08
2018-02-08T19:25:45.519Z,65.13
2018-02-08T19:28:11.324Z,62.14
2018-02-08T19:30:37.980Z,67.72
2018-02-08T19:33:04.323Z,64.17
2018-02-08T19:35:30.602Z,62.53
2018-02-08T19:37:56.387Z,63.32
2018-02-08T19:40:22.497Z,62.22
2018-02-08T19:42:48.406Z,63.03
2018-02-08T19:45:14.217Z,61.33
2018-02-08T19:47:40.018Z,59.22
2018-02-08T19:50:05.965Z,60.43
2018-02-08T19:52:31.765Z,62.97
2018-02-08T19:54:58.296Z,62.98
2018-02-08T19:57:24.092Z,62.55
2018-02-08T19:59:50.636Z,62.48
2018-02-08T20:02:16.423Z,63.33
2018-02-08T20:04:43.137Z,64.13
2018-02-08T20:07:09.031Z,69.60
2018-02-08T20:09:35.326Z,72.28
2018-02-08T20:12:01.121Z,74.43
2018-02-08T20:14:29.200Z,74.61
2018-02-08T20:16:56.554Z,75.49
2018-02-08T20:19:22.625Z,76.37
2018-02-08T20:21:48.742Z,76.20
2018-02-08T20:24:14.635Z,76.40
2018-02-08T20:26:41.093Z,76.88
2018-02-08T20:29:07.638Z,76.79
2018-02-08T20:31:33.560Z,76.79
2018-02-08T20:33:59.655Z,77.37
2018-02-08T20:36:25.911Z,77.52
2018-02-08T20:38:51.716Z,77.53
2018-02-08T20:41:17.531Z,77.27
2018-02-08T20:43:43.952Z,77.95
2018-02-08T20:46:09.780Z,77.90
2018-02-08T20:48:35.867Z,77.36
2018-02-08T20:51:01.695Z,78.21
2018-02-08T20:53:28.050Z,78.62
2018-02-08T20:55:53.847Z,78.62
2018-02-08T20:58:20.096Z,79.01
2018-02-08T21:00:45.939Z,78.60
2018-02-08T21:03:11.930Z,78.71
2018-02-08T21:05:37.790Z,78.94
2018-02-08T21:08:03.607Z,78.63
2018-02-08T21:10:29.383Z,79.28
2018-02-08T21:12:55.198Z,79.33
2018-02-08T21:15:21.423Z,79.20
2018-02-08T21:17:47.214Z,79.11
2018-02-08T21:20:13.726Z,79.72
2018-02-08T21:22:39.627Z,79.79
2018-02-08T21:25:05.442Z,80.04
2018-02-08T21:27:31.283Z,80.14
2018-02-08T21:29:57.090Z,80.34
2018-02-08T21:32:22.884Z,80.89
2018-02-08T21:34:49.391Z,81.24
2018-02-08T21:37:15.183Z,81.47
2018-02-08T21:39:41.358Z,82.08
2018-02-08T21:42:07.167Z,80.93
2018-02-08T21:44:33.414Z,80.47
2018-02-08T21:46:59.230Z,80.69
2018-02-08T21:49:26.085Z,81.11
2018-02-08T21:51:51.882Z,80.82
2018-02-08T21:54:17.687Z,81.38
2018-02-08T21:56:43.491Z,81.20
2018-02-08T21:59:09.322Z,81.89
2018-02-08T22:01:35.143Z,82.09
2018-02-08T22:04:01.322Z,81.77
2018-02-08T22:06:28.300Z,81.93
2018-02-08T22:08:54.366Z,81.99
2018-02-08T22:11:20.427Z,81.82
2018-02-08T22:13:46.234Z,82.21
2018-02-08T22:16:12.015Z,82.71
2018-02-08T22:18:37.813Z,82.87
2018-02-08T22:21:03.634Z,82.76
2018-02-08T22:23:29.420Z,82.91
2018-02-08T22:25:55.387Z,83.01
2018-02-08T22:28:21.195Z,83.45
2018-02-08T22:30:47.248Z,83.58
2018-02-08T22:33:13.055Z,83.87
2018-02-08T22:35:38.847Z,83.41
2018-02-08T22:38:04.691Z,83.54
2018-02-08T22:40:30.513Z,84.20
2018-02-08T22:42:56.318Z,84.27
2018-02-08T22:45:22.274Z,84.80
2018-02-08T22:47:48.073Z,84.70
2018-02-08T22:50:13.917Z,84.46
2018-02-08T22:52:39.703Z,84.79
2018-02-08T22:55:05.491Z,84.48
2018-02-08T22:57:31.557Z,84.80
2018-02-08T22:59:57.390Z,75.19
2018-02-08T23:02:23.194Z,68.60
2018-02-08T23:04:49.310Z,69.89
2018-02-08T23:07:15.104Z,69.25
2018-02-08T23:09:40.895Z,69.19
2018-02-08T23:12:06.727Z,67.71
2018-02-08T23:14:32.515Z,68.38
2018-02-08T23:16:58.318Z,65.81
2018-02-08T23:19:24.113Z,66.42
2018-02-08T23:21:49.893Z,66.28
2018-02-08T23:24:15.672Z,65.99
2018-02-08T23:26:41.566Z,63.50
2018-02-08T23:29:07.376Z,72.56
2018-02-08T23:31:33.199Z,76.84
2018-02-08T23:33:59.004Z,78.92
2018-02-08T23:36:24.804Z,79.59
2018-02-08T23:38:50.635Z,80.94
2018-02-08T23:41:16.428Z,81.41
2018-02-08T23:43:42.207Z,82.46
2018-02-08T23:46:08.331Z,82.87
2018-02-08T23:48:34.122Z,83.05
2018-02-08T23:50:59.910Z,83.49
2018-02-08T23:53:25.711Z,83.67
2018-02-08T23:55:51.495Z,83.70
2018-02-08T23:58:17.291Z,83.87
